createdAt,value
2023-03-28T00:00:21.756Z,5.22
2023-03-28T00:03:07.811Z,4.60
2023-03-28T00:05:57.380Z,6.72
2023-03-28T00:08:43.350Z,2.50
2023-03-28T00:11:29.706Z,4.70
2023-03-28T00:14:15.422Z,5.72
2023-03-28T00:17:02.060Z,5.70
2023-03-28T00:19:49.942Z,4.35
2023-03-28T00:22:38.107Z,4.57
2023-03-28T00:25:24.184Z,4.88
2023-03-28T00:28:10.146Z,3.85
2023-03-28T00:31:03.281Z,2.85
2023-03-28T00:33:49.484Z,5.78
2023-03-28T00:36:35.174Z,3.70
2023-03-28T00:39:20.836Z,3.42
2023-03-28T00:42:06.514Z,7.22
2023-03-28T00:44:56.354Z,3.90
2023-03-28T00:47:46.134Z,6.65
2023-03-28T00:50:36.855Z,5.38
2023-03-28T00:53:25.745Z,2.40
2023-03-28T00:56:14.543Z,3.65
2023-03-28T00:59:06.632Z,11.68
2023-03-28T01:01:55.315Z,4.38
2023-03-28T01:04:52.149Z,6.80
2023-03-28T01:07:42.543Z,8.38
2023-03-28T01:10:28.606Z,10.05
2023-03-28T01:13:16.604Z,8.20
2023-03-28T01:16:03.734Z,6.63
2023-03-28T01:18:53.097Z,4.53
2023-03-28T01:21:55.654Z,6.75
2023-03-28T01:25:12.457Z,4.57
2023-03-28T01:28:22.535Z,5.45
2023-03-28T01:31:26.034Z,2.53
2023-03-28T01:34:30.174Z,7.78
2023-03-28T01:37:44.377Z,8.60
2023-03-28T01:40:39.406Z,3.20
2023-03-28T01:43:36.482Z,4.78
2023-03-28T01:47:10.800Z,7.05
2023-03-28T01:52:52.332Z,5.88
2023-03-28T01:55:54.026Z,2.55
2023-03-28T01:58:58.416Z,1.85
2023-03-28T02:01:45.240Z,5.10
2023-03-28T02:04:33.563Z,6.30
2023-03-28T02:07:21.876Z,6.05
2023-03-28T02:10:10.021Z,6.03
2023-03-28T02:13:13.980Z,5.43
2023-03-28T02:16:01.940Z,5.70
2023-03-28T02:18:51.999Z,2.78
2023-03-28T02:21:45.575Z,3.05
2023-03-28T02:24:31.612Z,4.72
2023-03-28T02:27:18.845Z,3.03
2023-03-28T02:30:04.994Z,7.30
2023-03-28T02:32:51.615Z,6.85
2023-03-28T02:36:01.888Z,3.70
2023-03-28T02:38:47.560Z,5.20
2023-03-28T02:42:03.991Z,8.82
2023-03-28T02:45:14.159Z,8.32
2023-03-28T02:48:29.125Z,6.55
2023-03-28T02:51:30.312Z,6.22
2023-03-28T02:54:31.177Z,6.72
2023-03-28T02:57:20.873Z,4.78
2023-03-28T03:00:13.712Z,8.07
2023-03-28T03:02:59.097Z,6.32
2023-03-28T03:05:44.586Z,4.90
2023-03-28T03:08:30.940Z,3.05
2023-03-28T03:11:16.219Z,3.03
2023-03-28T03:14:02.312Z,4.97
2023-03-28T03:16:48.910Z,5.78
2023-03-28T03:19:34.693Z,6.70
2023-03-28T03:22:21.414Z,8.27
2023-03-28T03:25:08.319Z,7.03
2023-03-28T03:27:53.962Z,5.78
2023-03-28T03:30:39.857Z,3.88
2023-03-28T03:33:25.370Z,3.20
2023-03-28T03:36:12.802Z,8.45
2023-03-28T03:38:58.893Z,6.95
2023-03-28T03:41:44.156Z,7.38
2023-03-28T03:44:29.933Z,8.50
2023-03-28T03:47:17.835Z,5.80
2023-03-28T03:50:03.692Z,4.72
2023-03-28T03:52:49.402Z,5.63
2023-03-28T03:55:37.772Z,8.07
2023-03-28T03:58:22.928Z,6.15
2023-03-28T04:01:14.053Z,7.00
2023-03-28T04:04:00.126Z,7.97
2023-03-28T04:06:45.753Z,6.95
2023-03-28T04:09:31.026Z,10.50
2023-03-28T04:12:16.656Z,8.13
2023-03-28T04:15:02.203Z,7.35
2023-03-28T04:17:50.225Z,5.45
2023-03-28T04:20:35.971Z,8.75
2023-03-28T04:23:25.649Z,5.53
2023-03-28T04:26:25.804Z,7.55
2023-03-28T04:29:12.416Z,8.90
2023-03-28T04:31:59.051Z,8.52
2023-03-28T04:34:46.350Z,8.23
2023-03-28T04:37:31.757Z,10.10
2023-03-28T04:40:17.861Z,11.10
2023-03-28T04:43:03.484Z,6.43
2023-03-28T04:45:49.099Z,5.68
2023-03-28T04:48:34.432Z,7.70
2023-03-28T04:51:20.997Z,8.60
2023-03-28T04:54:06.600Z,5.80
2023-03-28T04:56:52.145Z,9.50
2023-03-28T04:59:37.871Z,8.55
2023-03-28T05:02:23.261Z,7.47
2023-03-28T05:05:09.208Z,8.13
2023-03-28T05:07:54.697Z,8.40
2023-03-28T05:10:41.295Z,5.22
2023-03-28T05:13:26.829Z,9.98
2023-03-28T05:16:12.116Z,9.68
2023-03-28T05:18:59.048Z,8.85
2023-03-28T05:21:44.540Z,8.43
2023-03-28T05:24:30.403Z,4.63
2023-03-28T05:27:15.802Z,9.27
2023-03-28T05:30:01.385Z,10.50
2023-03-28T05:32:47.030Z,8.23
2023-03-28T05:35:32.656Z,9.40
2023-03-28T05:38:18.399Z,8.50
2023-03-28T05:41:04.519Z,7.47
2023-03-28T05:43:50.031Z,19.73
2023-03-28T05:46:35.566Z,12.75
2023-03-28T05:49:20.734Z,8.48
2023-03-28T05:52:06.545Z,10.63
2023-03-28T05:54:52.386Z,10.43
2023-03-28T05:57:38.166Z,11.70
2023-03-28T06:00:24.446Z,5.60
2023-03-28T06:03:16.611Z,9.52
2023-03-28T06:06:04.495Z,14.93
2023-03-28T06:08:49.711Z,10.02
2023-03-28T06:11:35.056Z,9.50
2023-03-28T06:14:21.003Z,9.88
2023-03-28T06:17:07.884Z,12.43
2023-03-28T06:19:53.773Z,8.35
2023-03-28T06:22:39.442Z,9.60
2023-03-28T06:25:24.976Z,6.38
2023-03-28T06:28:10.213Z,13.07
2023-03-28T06:30:56.103Z,10.43
2023-03-28T06:33:41.604Z,9.63
2023-03-28T06:36:27.051Z,12.10
2023-03-28T06:39:12.959Z,8.23
2023-03-28T06:41:59.915Z,10.18
2023-03-28T06:44:45.438Z,9.25
2023-03-28T06:47:31.045Z,7.85
2023-03-28T06:50:16.774Z,11.52
2023-03-28T06:53:02.073Z,10.10
2023-03-28T06:55:51.554Z,9.25
2023-03-28T06:58:37.139Z,16.48
2023-03-28T07:01:23.064Z,11.43
2023-03-28T07:04:08.572Z,9.65
2023-03-28T07:06:53.908Z,11.75
2023-03-28T07:09:39.460Z,12.38
2023-03-28T07:12:25.036Z,7.93
2023-03-28T07:15:11.604Z,8.63
2023-03-28T07:17:57.569Z,12.52
2023-03-28T07:20:45.496Z,10.30
2023-03-28T07:23:31.012Z,13.20
2023-03-28T07:26:17.460Z,11.93
2023-03-28T07:29:03.110Z,13.50
2023-03-28T07:31:48.718Z,12.18
2023-03-28T07:34:34.631Z,11.65
2023-03-28T07:37:20.654Z,9.88
2023-03-28T07:40:07.002Z,12.20
2023-03-28T07:42:52.582Z,11.30
2023-03-28T07:45:38.175Z,15.32
2023-03-28T07:48:23.801Z,19.70
2023-03-28T07:51:11.013Z,23.45
2023-03-28T07:53:56.889Z,15.27
2023-03-28T07:56:42.507Z,14.15
2023-03-28T07:59:28.063Z,14.80
2023-03-28T08:02:13.409Z,16.52
2023-03-28T08:04:58.822Z,16.48
2023-03-28T08:07:47.162Z,17.30
2023-03-28T08:10:33.632Z,17.25
2023-03-28T08:13:21.198Z,15.07
2023-03-28T08:16:07.769Z,16.63
2023-03-28T08:19:03.898Z,16.15
2023-03-28T08:21:55.854Z,15.77
2023-03-28T08:24:41.780Z,14.98
2023-03-28T08:27:27.277Z,20.80
2023-03-28T08:30:12.814Z,17.02
2023-03-28T08:32:58.563Z,10.98
2023-03-28T08:35:43.899Z,13.20
2023-03-28T08:38:29.472Z,15.18
2023-03-28T08:41:29.104Z,15.55
2023-03-28T08:44:48.443Z,10.60
2023-03-28T08:47:45.841Z,11.27
2023-03-28T08:50:35.072Z,12.82
2023-03-28T08:53:30.551Z,19.02
2023-03-28T08:56:17.152Z,13.57
2023-03-28T08:59:13.336Z,13.77
2023-03-28T09:01:58.975Z,13.43
2023-03-28T09:04:45.218Z,11.93
2023-03-28T09:07:54.768Z,15.48
2023-03-28T09:10:49.226Z,13.50
2023-03-28T09:14:14.156Z,11.75
2023-03-28T09:17:26.573Z,12.70
2023-03-28T09:20:26.958Z,12.63
2023-03-28T09:23:24.010Z,11.88
2023-03-28T09:26:17.090Z,15.48
2023-03-28T09:29:25.224Z,17.00
2023-03-28T09:32:30.829Z,16.73
2023-03-28T09:35:24.692Z,10.52
2023-03-28T09:38:20.866Z,7.57
2023-03-28T09:41:45.514Z,12.05
2023-03-28T09:44:51.025Z,8.38
2023-03-28T09:47:40.115Z,10.65
2023-03-28T09:50:25.667Z,15.23
2023-03-28T09:53:21.944Z,18.88
2023-03-28T09:56:18.299Z,11.90
2023-03-28T09:59:06.465Z,10.93
2023-03-28T10:01:54.843Z,10.00
2023-03-28T10:04:40.716Z,12.75
2023-03-28T10:07:46.897Z,10.02
2023-03-28T10:10:43.543Z,17.05
2023-03-28T10:13:37.866Z,10.40
2023-03-28T10:16:33.748Z,13.20
2023-03-28T10:19:33.876Z,14.48
2023-03-28T10:22:23.711Z,16.17
2023-03-28T10:25:17.522Z,12.38
2023-03-28T10:28:05.309Z,12.63
2023-03-28T10:30:58.130Z,5.47
2023-03-28T10:33:43.959Z,8.30
2023-03-28T10:36:34.852Z,13.38
2023-03-28T10:39:29.116Z,15.68
2023-03-28T10:42:14.875Z,10.15
2023-03-28T10:45:02.274Z,11.00
2023-03-28T10:47:51.188Z,7.22
2023-03-28T10:50:51.574Z,10.52
2023-03-28T10:53:52.002Z,6.93
2023-03-28T10:56:42.252Z,10.75
2023-03-28T10:59:27.666Z,14.70
2023-03-28T11:03:18.842Z,7.90
2023-03-28T11:06:12.806Z,10.65
2023-03-28T11:09:48.590Z,7.28
2023-03-28T11:12:55.123Z,6.15
2023-03-28T11:15:45.307Z,8.32
2023-03-28T11:18:41.188Z,6.32
2023-03-28T11:21:33.818Z,5.43
2023-03-28T11:24:22.897Z,11.32
2023-03-28T11:27:20.494Z,10.23
2023-03-28T11:30:25.853Z,9.55
2023-03-28T11:33:36.771Z,16.13
2023-03-28T11:36:30.124Z,7.20
2023-03-28T11:39:34.922Z,4.95
2023-03-28T11:42:39.678Z,9.18
2023-03-28T11:45:52.728Z,9.43
2023-03-28T11:48:45.252Z,10.90
2023-03-28T11:52:16.617Z,5.88
2023-03-28T11:55:24.105Z,7.63
2023-03-28T11:58:29.462Z,12.00
2023-03-28T12:01:23.221Z,11.23
2023-03-28T12:04:21.167Z,12.15
2023-03-28T12:07:25.268Z,16.58
2023-03-28T12:13:12.054Z,9.23
2023-03-28T12:16:04.581Z,9.65
2023-03-28T12:18:57.582Z,8.80
2023-03-28T12:21:47.107Z,10.68
2023-03-28T12:24:46.899Z,5.00
2023-03-28T12:28:08.289Z,8.32
2023-03-28T12:31:06.321Z,7.75
2023-03-28T12:34:32.064Z,6.47
2023-03-28T12:37:46.387Z,7.95
2023-03-28T12:40:56.023Z,12.00
2023-03-28T12:44:10.903Z,6.43
2023-03-28T12:47:07.914Z,10.02
2023-03-28T12:50:17.423Z,8.85
2023-03-28T12:53:03.166Z,5.82
2023-03-28T12:55:51.591Z,9.13
2023-03-28T12:58:37.524Z,9.02
2023-03-28T13:01:46.928Z,7.93
2023-03-28T13:04:41.924Z,8.50
2023-03-28T13:07:37.135Z,5.20
2023-03-28T13:10:47.551Z,6.68
2023-03-28T13:14:08.986Z,9.88
2023-03-28T13:17:18.295Z,11.30
2023-03-28T13:20:18.704Z,10.32
2023-03-28T13:23:07.901Z,4.82
2023-03-28T13:25:59.628Z,8.13
2023-03-28T13:28:48.800Z,8.38
2023-03-28T13:31:34.321Z,11.13
2023-03-28T13:34:25.128Z,8.90
2023-03-28T13:37:23.418Z,7.60
2023-03-28T13:40:43.203Z,12.15
2023-03-28T13:43:37.724Z,7.82
2023-03-28T13:46:41.005Z,8.32
2023-03-28T13:49:29.666Z,10.70
2023-03-28T13:52:23.788Z,8.95
2023-03-28T13:55:27.149Z,9.20
2023-03-28T13:58:13.698Z,9.70
2023-03-28T14:01:16.221Z,7.65
2023-03-28T14:04:01.893Z,8.40
2023-03-28T14:06:48.595Z,8.95
2023-03-28T14:09:35.374Z,5.07
2023-03-28T14:12:22.195Z,13.15
2023-03-28T14:15:12.365Z,7.55
2023-03-28T14:17:59.804Z,3.45
2023-03-28T14:20:46.933Z,7.07
2023-03-28T14:23:37.583Z,8.02
2023-03-28T14:26:27.487Z,5.95
2023-03-28T14:29:17.422Z,4.95
2023-03-28T14:32:08.044Z,10.85
2023-03-28T14:34:55.897Z,7.18
2023-03-28T14:37:51.479Z,8.43
2023-03-28T14:40:39.049Z,8.63
2023-03-28T14:43:31.864Z,7.60
2023-03-28T14:46:21.685Z,8.25
2023-03-28T14:49:10.165Z,10.43
2023-03-28T14:51:58.484Z,8.15
2023-03-28T14:54:48.174Z,10.02
2023-03-28T14:57:38.586Z,7.65
2023-03-28T15:00:38.448Z,10.35
2023-03-28T15:03:39.055Z,6.25
2023-03-28T15:06:26.060Z,5.63
2023-03-28T15:09:32.114Z,5.90
2023-03-28T15:12:21.482Z,3.35
2023-03-28T15:15:13.968Z,7.22
2023-03-28T15:18:02.862Z,5.60
2023-03-28T15:20:52.138Z,5.90
2023-03-28T15:23:59.248Z,6.05
2023-03-28T15:26:53.563Z,3.08
2023-03-28T15:29:39.240Z,6.32
2023-03-28T15:32:27.980Z,7.88
2023-03-28T15:35:27.854Z,5.70
2023-03-28T15:38:18.957Z,5.10
2023-03-28T15:41:19.615Z,5.35
2023-03-28T15:44:25.968Z,6.38
2023-03-28T15:47:15.096Z,8.15
2023-03-28T15:50:06.856Z,5.32
2023-03-28T15:53:00.361Z,4.13
2023-03-28T15:55:48.888Z,7.88
2023-03-28T15:58:35.036Z,3.78
2023-03-28T16:01:30.806Z,10.15
2023-03-28T16:04:28.793Z,7.28
2023-03-28T16:07:14.326Z,7.05
2023-03-28T16:10:00.139Z,10.85
2023-03-28T16:12:47.004Z,6.03
2023-03-28T16:15:32.790Z,15.20
2023-03-28T16:18:20.055Z,10.48
2023-03-28T16:21:06.707Z,6.88
2023-03-28T16:23:51.985Z,7.20
2023-03-28T16:26:37.959Z,8.00
2023-03-28T16:29:23.450Z,7.65
2023-03-28T16:32:12.201Z,9.18
2023-03-28T16:34:59.114Z,6.95
2023-03-28T16:37:44.340Z,10.23
2023-03-28T16:40:30.130Z,9.82
2023-03-28T16:43:16.626Z,6.45
2023-03-28T16:46:02.814Z,4.20
2023-03-28T16:48:48.711Z,10.60
2023-03-28T16:51:34.722Z,5.47
2023-03-28T16:54:24.478Z,12.05
2023-03-28T16:57:09.944Z,5.65
2023-03-28T16:59:55.669Z,8.48
2023-03-28T17:02:41.604Z,6.05
2023-03-28T17:05:27.247Z,6.72
2023-03-28T17:08:13.002Z,7.25
2023-03-28T17:11:00.148Z,6.88
2023-03-28T17:13:47.547Z,7.53
2023-03-28T17:16:33.377Z,8.38
2023-03-28T17:19:22.970Z,9.77
2023-03-28T17:22:09.014Z,10.75
2023-03-28T17:24:56.962Z,10.75
2023-03-28T17:27:42.323Z,11.63
2023-03-28T17:30:28.162Z,9.30
2023-03-28T17:33:13.966Z,9.05
2023-03-28T17:36:00.067Z,8.00
2023-03-28T17:38:46.333Z,12.80
2023-03-28T17:41:31.720Z,12.20
2023-03-28T17:44:17.081Z,8.88
2023-03-28T17:47:03.331Z,15.30
2023-03-28T17:49:49.121Z,14.30
2023-03-28T17:52:35.056Z,7.88
2023-03-28T17:55:20.372Z,6.93
2023-03-28T17:58:06.233Z,11.80
2023-03-28T18:00:51.768Z,11.15
2023-03-28T18:03:39.190Z,10.23
2023-03-28T18:06:25.245Z,12.57
2023-03-28T18:09:10.882Z,7.40
2023-03-28T18:11:56.462Z,9.00
2023-03-28T18:14:42.312Z,12.80
2023-03-28T18:17:28.016Z,6.90
2023-03-28T18:20:15.029Z,11.07
2023-03-28T18:23:00.474Z,12.48
2023-03-28T18:25:46.194Z,8.02
2023-03-28T18:28:31.847Z,10.45
2023-03-28T18:31:20.009Z,6.55
2023-03-28T18:34:06.745Z,9.95
2023-03-28T18:36:55.505Z,12.50
2023-03-28T18:39:42.230Z,10.23
2023-03-28T18:42:27.844Z,9.35
2023-03-28T18:45:13.841Z,10.75
2023-03-28T18:47:59.324Z,8.88
2023-03-28T18:50:45.546Z,10.40
2023-03-28T18:53:30.788Z,10.95
2023-03-28T18:56:16.940Z,11.07
2023-03-28T18:59:02.523Z,12.80
2023-03-28T19:01:51.499Z,9.73
2023-03-28T19:04:37.722Z,11.25
2023-03-28T19:07:22.868Z,9.25
2023-03-28T19:10:11.723Z,12.15
2023-03-28T19:12:56.983Z,4.93
2023-03-28T19:15:43.087Z,13.48
2023-03-28T19:18:28.866Z,12.85
2023-03-28T19:21:14.892Z,10.48
2023-03-28T19:24:00.904Z,12.48
2023-03-28T19:26:46.472Z,5.93
2023-03-28T19:29:32.188Z,11.60
2023-03-28T19:32:18.094Z,12.98
2023-03-28T19:35:03.723Z,7.80
2023-03-28T19:37:49.267Z,11.75
2023-03-28T19:40:34.892Z,13.25
2023-03-28T19:43:23.833Z,10.05
2023-03-28T19:46:13.309Z,10.32
2023-03-28T19:49:01.475Z,10.98
2023-03-28T19:51:47.141Z,9.38
2023-03-28T19:54:32.440Z,10.25
2023-03-28T19:57:18.011Z,11.23
2023-03-28T20:00:08.032Z,11.25
2023-03-28T20:02:54.099Z,12.65
2023-03-28T20:05:44.137Z,11.30
2023-03-28T20:08:29.604Z,10.98
2023-03-28T20:11:16.161Z,10.70
2023-03-28T20:14:04.346Z,10.95
2023-03-28T20:16:50.287Z,13.82
2023-03-28T20:19:39.457Z,9.82
2023-03-28T20:22:25.997Z,10.60
2023-03-28T20:25:14.880Z,10.05
2023-03-28T20:28:02.742Z,12.13
2023-03-28T20:30:48.321Z,10.73
2023-03-28T20:33:33.635Z,18.65
2023-03-28T20:36:19.222Z,11.82
2023-03-28T20:39:05.344Z,13.90
2023-03-28T20:42:05.883Z,11.73
2023-03-28T20:44:55.790Z,14.88
2023-03-28T20:47:42.914Z,13.65
2023-03-28T20:50:37.717Z,10.82
2023-03-28T20:53:23.267Z,9.45
2023-03-28T20:56:11.613Z,11.07
2023-03-28T20:59:00.626Z,11.13
2023-03-28T21:01:47.857Z,12.43
2023-03-28T21:04:33.540Z,20.17
2023-03-28T21:07:19.218Z,15.02
2023-03-28T21:10:05.257Z,12.75
2023-03-28T21:12:51.557Z,10.52
2023-03-28T21:15:37.545Z,12.02
2023-03-28T21:18:22.982Z,14.73
2023-03-28T21:21:09.889Z,14.05
2023-03-28T21:23:55.954Z,14.15
2023-03-28T21:26:41.107Z,13.85
2023-03-28T21:29:27.684Z,14.75
2023-03-28T21:32:14.677Z,10.23
2023-03-28T21:35:02.307Z,12.45
2023-03-28T21:37:48.056Z,11.48
2023-03-28T21:40:33.602Z,13.45
2023-03-28T21:43:18.947Z,11.30
2023-03-28T21:46:06.343Z,13.35
2023-03-28T21:48:51.745Z,10.80
2023-03-28T21:51:37.364Z,13.55
2023-03-28T21:54:22.831Z,11.77
2023-03-28T21:57:08.277Z,14.00
2023-03-28T21:59:53.870Z,12.30
2023-03-28T22:02:39.203Z,16.08
2023-03-28T22:05:29.801Z,12.10
2023-03-28T22:08:16.044Z,10.65
2023-03-28T22:11:02.770Z,12.75
2023-03-28T22:13:48.354Z,12.27
2023-03-28T22:16:38.957Z,14.20
2023-03-28T22:19:30.115Z,15.45
2023-03-28T22:22:19.634Z,10.73
2023-03-28T22:25:05.112Z,13.50
2023-03-28T22:27:50.455Z,12.73
2023-03-28T22:30:38.623Z,14.05
2023-03-28T22:33:25.110Z,14.48
2023-03-28T22:36:11.951Z,16.60
2023-03-28T22:38:57.641Z,19.85
2023-03-28T22:41:46.108Z,14.48
2023-03-28T22:44:31.905Z,15.63
2023-03-28T22:47:18.112Z,19.05
2023-03-28T22:50:04.396Z,19.58
2023-03-28T22:52:53.078Z,18.30
2023-03-28T22:55:38.815Z,17.65
2023-03-28T22:58:24.291Z,20.30
2023-03-28T23:01:09.655Z,21.15
2023-03-28T23:03:55.170Z,24.33
2023-03-28T23:06:41.548Z,28.58
2023-03-28T23:09:27.942Z,26.40
2023-03-28T23:12:13.868Z,20.40
2023-03-28T23:14:59.295Z,19.77
2023-03-28T23:17:45.772Z,22.08
2023-03-28T23:20:31.643Z,23.58
2023-03-28T23:23:17.323Z,24.08
2023-03-28T23:26:03.017Z,25.92
2023-03-28T23:28:48.567Z,23.15
2023-03-28T23:31:34.425Z,22.33
2023-03-28T23:34:19.883Z,22.92
2023-03-28T23:37:05.543Z,22.77
2023-03-28T23:39:51.515Z,25.25
2023-03-28T23:42:36.955Z,24.85
2023-03-28T23:45:22.439Z,32.70
2023-03-28T23:48:09.253Z,30.40
2023-03-28T23:50:55.006Z,28.73
2023-03-28T23:53:40.409Z,28.60
2023-03-28T23:56:26.188Z,29.42
2023-03-28T23:59:12.097Z,32.88
